createdAt,value
2023-03-26T03:01:18.343Z,8.20
2023-03-26T03:03:48.849Z,8.10
2023-03-26T03:06:18.856Z,8.20
2023-03-26T03:08:46.549Z,8.10
2023-03-26T03:11:22.144Z,8.20
2023-03-26T03:13:50.012Z,8.20
2023-03-26T03:16:17.460Z,8.20
2023-03-26T03:18:44.813Z,8.20
2023-03-26T03:21:11.998Z,8.20
2023-03-26T03:23:40.380Z,8.10
2023-03-26T03:26:15.506Z,8.10
2023-03-26T03:28:45.050Z,8.00
2023-03-26T03:31:12.290Z,7.90
2023-03-26T03:33:41.447Z,7.90
2023-03-26T03:36:20.649Z,7.80
2023-03-26T03:38:49.951Z,7.90
2023-03-26T03:41:18.687Z,7.90
2023-03-26T03:43:46.136Z,8.00
2023-03-26T03:46:13.410Z,7.90
2023-03-26T03:48:40.710Z,7.90
2023-03-26T03:51:07.945Z,7.90
2023-03-26T03:53:37.273Z,8.00
2023-03-26T03:56:09.989Z,8.00
2023-03-26T03:58:37.411Z,8.00
2023-03-26T04:01:04.789Z,8.10
2023-03-26T04:03:38.353Z,8.10
2023-03-26T04:06:11.086Z,8.10
2023-03-26T04:08:38.430Z,8.10
2023-03-26T04:11:05.751Z,8.20
2023-03-26T04:13:32.933Z,8.20
2023-03-26T04:16:00.541Z,8.20
2023-03-26T04:18:29.539Z,8.20
2023-03-26T04:20:56.804Z,8.20
2023-03-26T04:23:24.408Z,8.20
2023-03-26T04:25:54.615Z,8.20
2023-03-26T04:28:53.269Z,8.30
2023-03-26T04:31:24.289Z,8.30
2023-03-26T04:33:55.146Z,8.30
2023-03-26T04:36:30.174Z,8.30
2023-03-26T04:38:58.501Z,8.30
2023-03-26T04:41:26.381Z,8.40
2023-03-26T04:43:54.005Z,8.40
2023-03-26T04:46:23.366Z,8.40
2023-03-26T04:48:51.502Z,8.30
2023-03-26T04:51:21.955Z,8.40
2023-03-26T04:53:58.289Z,8.40
2023-03-26T04:56:46.591Z,8.40
2023-03-26T04:59:18.029Z,8.40
2023-03-26T05:01:48.155Z,8.30
2023-03-26T05:04:15.491Z,8.30
2023-03-26T05:06:43.009Z,8.30
2023-03-26T05:09:10.721Z,8.40
2023-03-26T05:11:38.044Z,8.40
2023-03-26T05:14:05.490Z,8.40
2023-03-26T05:16:33.744Z,8.40
2023-03-26T05:19:00.964Z,8.40
2023-03-26T05:21:28.137Z,8.40
2023-03-26T05:23:55.359Z,8.50
2023-03-26T05:26:23.736Z,8.50
2023-03-26T05:28:52.491Z,8.50
2023-03-26T05:31:21.217Z,8.50
2023-03-26T05:33:48.780Z,8.40
2023-03-26T05:36:17.155Z,8.50
2023-03-26T05:38:48.134Z,8.50
2023-03-26T05:41:16.579Z,8.50
2023-03-26T05:43:44.884Z,8.50
2023-03-26T05:46:13.790Z,8.60
2023-03-26T05:48:41.095Z,8.60
2023-03-26T05:51:08.856Z,8.60
2023-03-26T05:53:36.410Z,8.40
2023-03-26T05:56:04.268Z,8.30
2023-03-26T05:58:36.420Z,8.20
2023-03-26T06:01:08.578Z,8.00
2023-03-26T06:03:38.634Z,8.00
2023-03-26T06:06:16.603Z,7.90
2023-03-26T06:08:48.872Z,7.80
2023-03-26T06:11:31.560Z,7.80
2023-03-26T06:13:59.392Z,7.80
2023-03-26T06:16:27.473Z,7.80
2023-03-26T06:18:57.187Z,7.90
2023-03-26T06:21:28.439Z,8.00
2023-03-26T06:23:56.219Z,8.10
2023-03-26T06:26:23.584Z,8.00
2023-03-26T06:28:51.072Z,8.10
2023-03-26T06:31:19.231Z,8.10
2023-03-26T06:33:47.006Z,8.10
2023-03-26T06:39:40.339Z,8.20
2023-03-26T06:43:06.505Z,8.30
2023-03-26T06:45:18.690Z,8.30
2023-03-26T06:47:46.137Z,8.40
2023-03-26T06:50:13.566Z,8.50
2023-03-26T06:52:40.986Z,8.50
2023-03-26T06:55:08.616Z,8.60
2023-03-26T06:57:36.009Z,8.60
2023-03-26T07:00:04.971Z,8.70
2023-03-26T07:03:12.900Z,8.70
2023-03-26T07:10:55.310Z,8.80
2023-03-26T07:13:20.383Z,8.90
2023-03-26T07:15:49.399Z,8.90
2023-03-26T07:18:16.527Z,9.10
2023-03-26T07:24:29.288Z,9.00
2023-03-26T07:27:18.730Z,9.10
2023-03-26T07:30:09.920Z,9.20
2023-03-26T07:33:13.356Z,9.30
2023-03-26T07:35:47.109Z,9.30
2023-03-26T07:38:36.276Z,9.40
2023-03-26T07:41:03.378Z,9.50
2023-03-26T07:43:59.417Z,9.40
2023-03-26T07:46:32.070Z,9.40
2023-03-26T07:49:01.732Z,9.50
2023-03-26T07:51:29.232Z,9.70
2023-03-26T07:53:57.013Z,9.70
2023-03-26T07:56:42.842Z,9.80
2023-03-26T07:59:29.661Z,9.80
2023-03-26T08:01:59.904Z,9.90
2023-03-26T08:04:33.372Z,10.00
2023-03-26T08:07:04.670Z,10.00
2023-03-26T08:09:50.748Z,10.00
2023-03-26T08:12:45.430Z,9.90
2023-03-26T08:15:33.619Z,9.90
2023-03-26T08:18:26.124Z,9.70
2023-03-26T08:21:27.105Z,9.60
2023-03-26T08:23:55.112Z,9.30
2023-03-26T08:26:49.044Z,9.10
2023-03-26T08:29:39.479Z,9.10
2023-03-26T08:32:13.815Z,9.10
2023-03-26T08:34:41.091Z,9.20
2023-03-26T08:37:09.868Z,9.10
2023-03-26T08:39:38.866Z,9.00
2023-03-26T08:42:21.027Z,8.80
2023-03-26T08:45:33.111Z,8.90
2023-03-26T08:48:34.097Z,8.70
2023-03-26T08:51:35.039Z,8.60
2023-03-26T08:54:31.492Z,8.30
2023-03-26T08:57:18.142Z,8.20
2023-03-26T09:00:05.906Z,8.20
2023-03-26T09:02:36.227Z,8.30
2023-03-26T09:05:15.212Z,8.40
2023-03-26T09:08:12.593Z,8.40
2023-03-26T09:11:01.069Z,8.40
2023-03-26T09:13:46.869Z,8.40
2023-03-26T09:16:43.318Z,8.30
2023-03-26T09:19:47.969Z,8.30
2023-03-26T09:22:26.740Z,8.20
2023-03-26T09:25:06.369Z,8.10
2023-03-26T09:27:59.052Z,8.20
2023-03-26T09:31:03.932Z,8.30
2023-03-26T09:33:37.101Z,8.20
2023-03-26T09:36:32.079Z,8.10
2023-03-26T09:39:08.738Z,8.00
2023-03-26T09:41:43.712Z,7.90
2023-03-26T09:44:32.721Z,7.80
2023-03-26T09:47:22.334Z,7.80
2023-03-26T09:49:59.908Z,7.80
2023-03-26T09:52:38.892Z,7.80
2023-03-26T09:55:30.928Z,7.80
2023-03-26T09:58:16.966Z,7.80
2023-03-26T10:01:05.698Z,7.80
2023-03-26T10:04:01.771Z,7.90
2023-03-26T10:07:03.130Z,8.00
2023-03-26T10:09:36.428Z,7.80
2023-03-26T10:12:25.063Z,7.90
2023-03-26T10:15:13.556Z,8.00
2023-03-26T10:17:49.915Z,8.00
2023-03-26T10:20:32.968Z,8.00
2023-03-26T10:23:14.911Z,7.90
2023-03-26T10:26:14.366Z,7.90
2023-03-26T10:28:47.482Z,7.90
2023-03-26T10:31:38.334Z,8.30
2023-03-26T10:34:34.032Z,8.70
2023-03-26T10:37:04.300Z,8.70
2023-03-26T10:39:36.734Z,8.70
2023-03-26T10:42:31.796Z,8.80
2023-03-26T10:45:26.701Z,9.00
2023-03-26T10:48:18.729Z,9.10
2023-03-26T10:51:16.727Z,9.20
2023-03-26T10:53:49.528Z,9.10
2023-03-26T10:56:24.143Z,9.30
2023-03-26T10:58:51.892Z,9.10
2023-03-26T11:01:32.403Z,9.00
2023-03-26T11:04:29.567Z,8.90
2023-03-26T11:07:11.841Z,8.90
2023-03-26T11:09:48.509Z,9.00
2023-03-26T11:12:25.435Z,9.30
2023-03-26T11:15:16.835Z,9.60
2023-03-26T11:17:51.585Z,9.70
2023-03-26T11:20:49.164Z,9.70
2023-03-26T11:23:16.349Z,9.60
2023-03-26T11:26:12.594Z,9.50
2023-03-26T11:29:05.981Z,9.60
2023-03-26T11:32:03.456Z,9.60
2023-03-26T11:34:52.249Z,9.20
2023-03-26T11:37:38.692Z,8.80
2023-03-26T11:40:16.377Z,8.90
2023-03-26T11:42:44.527Z,8.80
2023-03-26T11:45:27.863Z,9.10
2023-03-26T11:48:03.999Z,9.00
2023-03-26T11:50:34.923Z,8.90
2023-03-26T11:53:12.392Z,8.90
2023-03-26T11:56:08.082Z,9.10
2023-03-26T11:58:39.190Z,9.00
2023-03-26T12:01:16.175Z,9.10
2023-03-26T12:03:43.992Z,9.40
2023-03-26T12:06:29.026Z,9.60
2023-03-26T12:08:57.279Z,9.50
2023-03-26T12:11:28.371Z,9.50
2023-03-26T12:14:00.352Z,9.60
2023-03-26T12:16:28.105Z,9.60
2023-03-26T12:19:17.911Z,9.50
2023-03-26T12:21:47.761Z,9.30
2023-03-26T12:24:30.193Z,9.20
2023-03-26T12:27:28.206Z,9.30
2023-03-26T12:30:25.496Z,9.30
2023-03-26T12:32:57.695Z,9.50
2023-03-26T12:35:30.745Z,9.50
2023-03-26T12:38:34.172Z,9.50
2023-03-26T12:44:45.138Z,9.40
2023-03-26T12:44:54.391Z,9.50
2023-03-26T12:47:57.631Z,9.40
2023-03-26T12:49:35.526Z,9.30
2023-03-26T12:52:18.798Z,9.20
2023-03-26T12:55:13.469Z,9.60
2023-03-26T12:57:56.413Z,9.60
2023-03-26T13:00:26.430Z,9.70
2023-03-26T13:03:13.231Z,9.90
2023-03-26T13:05:59.315Z,10.00
2023-03-26T13:08:41.206Z,10.10
2023-03-26T13:11:20.134Z,10.00
2023-03-26T13:14:01.953Z,9.90
2023-03-26T13:16:52.609Z,9.90
2023-03-26T13:19:47.618Z,10.20
2023-03-26T13:23:08.305Z,10.30
2023-03-26T13:25:36.830Z,10.30
2023-03-26T13:28:31.733Z,10.40
2023-03-26T13:31:36.459Z,10.30
2023-03-26T13:34:25.992Z,10.40
2023-03-26T13:37:22.517Z,10.30
2023-03-26T13:40:13.018Z,10.40
2023-03-26T13:43:04.631Z,10.40
2023-03-26T13:46:07.399Z,10.40
2023-03-26T13:48:49.867Z,10.60
2023-03-26T13:51:39.828Z,10.80
2023-03-26T13:54:14.773Z,10.80
2023-03-26T13:56:47.666Z,10.80
2023-03-26T13:59:27.461Z,11.10
2023-03-26T14:01:58.414Z,10.90
2023-03-26T14:04:36.898Z,10.90
2023-03-26T14:07:22.439Z,10.90
2023-03-26T14:10:11.176Z,11.00
2023-03-26T14:12:51.737Z,11.10
2023-03-26T14:15:44.473Z,11.20
2023-03-26T14:18:25.038Z,11.10
2023-03-26T14:21:07.480Z,11.30
2023-03-26T14:23:40.842Z,11.50
2023-03-26T14:26:43.334Z,11.50
2023-03-26T14:29:29.158Z,11.60
2023-03-26T14:32:06.833Z,11.50
2023-03-26T14:34:53.982Z,11.30
2023-03-26T14:37:37.662Z,11.30
2023-03-26T14:40:16.947Z,11.10
2023-03-26T14:43:02.134Z,10.80
2023-03-26T14:46:07.556Z,10.80
2023-03-26T14:49:22.713Z,10.50
2023-03-26T14:52:27.309Z,10.60
2023-03-26T14:54:57.846Z,10.00
2023-03-26T14:57:37.076Z,9.10
2023-03-26T15:00:31.497Z,8.80
2023-03-26T15:03:02.204Z,8.60
2023-03-26T15:05:47.897Z,8.50
2023-03-26T15:08:52.847Z,8.50
2023-03-26T15:11:46.006Z,8.60
2023-03-26T15:14:51.088Z,8.60
2023-03-26T15:17:44.994Z,8.60
2023-03-26T15:20:36.812Z,8.70
2023-03-26T15:23:32.813Z,8.90
2023-03-26T15:26:18.678Z,9.40
2023-03-26T15:29:16.346Z,10.20
2023-03-26T15:32:26.775Z,10.90
2023-03-26T15:35:23.624Z,10.90
2023-03-26T15:38:29.494Z,10.70
2023-03-26T15:41:17.612Z,10.70
2023-03-26T15:46:38.974Z,11.00
2023-03-26T15:49:47.971Z,11.30
2023-03-26T15:52:29.896Z,11.40
2023-03-26T15:55:15.678Z,11.20
2023-03-26T15:58:06.268Z,10.80
2023-03-26T16:00:47.814Z,10.20
2023-03-26T16:03:25.608Z,10.20
2023-03-26T16:06:15.781Z,10.30
2023-03-26T16:09:07.908Z,10.10
2023-03-26T16:11:49.660Z,10.10
2023-03-26T16:14:47.824Z,10.00
2023-03-26T16:17:23.340Z,10.00
2023-03-26T16:19:54.790Z,9.80
2023-03-26T16:22:51.856Z,9.30
2023-03-26T16:25:35.605Z,8.80
2023-03-26T16:28:27.930Z,8.70
2023-03-26T16:31:38.363Z,8.30
2023-03-26T16:34:09.197Z,8.30
2023-03-26T16:36:44.182Z,8.00
2023-03-26T16:39:18.738Z,7.40
2023-03-26T16:41:46.872Z,7.10
2023-03-26T16:44:23.278Z,6.70
2023-03-26T16:46:57.812Z,6.40
2023-03-26T16:50:08.530Z,6.10
2023-03-26T16:53:05.206Z,5.80
2023-03-26T16:56:02.714Z,5.60
2023-03-26T16:58:32.689Z,5.60
2023-03-26T17:01:19.344Z,5.10
2023-03-26T17:04:11.687Z,5.00
2023-03-26T17:06:56.513Z,5.00
2023-03-26T17:09:51.525Z,4.90
2023-03-26T17:12:39.416Z,5.10
2023-03-26T17:15:12.724Z,5.10
2023-03-26T17:18:04.870Z,5.20
2023-03-26T17:20:46.160Z,5.10
2023-03-26T17:23:51.602Z,5.10
2023-03-26T17:26:42.295Z,5.30
2023-03-26T17:29:18.540Z,5.30
2023-03-26T17:32:03.321Z,5.40
2023-03-26T17:34:49.417Z,5.30
2023-03-26T17:37:16.763Z,5.30
2023-03-26T17:39:45.392Z,5.30
2023-03-26T17:42:33.015Z,5.30
2023-03-26T17:45:03.537Z,5.30
2023-03-26T17:47:59.116Z,5.40
2023-03-26T17:50:41.095Z,5.50
2023-03-26T17:53:23.350Z,5.70
2023-03-26T17:55:52.101Z,5.70
2023-03-26T17:58:32.089Z,5.80
2023-03-26T18:01:13.367Z,5.90
2023-03-26T18:03:49.330Z,6.00
2023-03-26T18:06:48.235Z,6.00
2023-03-26T18:10:06.030Z,5.90
2023-03-26T18:12:51.812Z,5.90
2023-03-26T18:15:50.104Z,5.90
2023-03-26T18:18:26.390Z,5.90
2023-03-26T18:20:55.068Z,5.80
2023-03-26T18:23:30.124Z,5.80
2023-03-26T18:26:11.388Z,5.70
2023-03-26T18:28:49.683Z,5.70
2023-03-26T18:33:49.534Z,5.80
2023-03-26T18:36:19.669Z,5.80
2023-03-26T18:38:48.747Z,5.70
2023-03-26T18:41:42.020Z,5.70
2023-03-26T18:44:18.377Z,5.60
2023-03-26T18:46:46.380Z,5.50
2023-03-26T18:49:16.323Z,5.50
2023-03-26T18:51:56.142Z,5.50
2023-03-26T18:54:29.330Z,5.40
2023-03-26T18:56:58.818Z,5.40
2023-03-26T18:59:35.077Z,5.30
2023-03-26T19:02:10.104Z,5.20
2023-03-26T19:04:38.068Z,5.20
2023-03-26T19:07:13.612Z,5.20
2023-03-26T19:09:42.364Z,5.20
2023-03-26T19:12:28.262Z,5.20
2023-03-26T19:15:13.671Z,5.10
2023-03-26T19:17:44.764Z,5.10
2023-03-26T19:20:44.363Z,5.20
2023-03-26T19:23:18.442Z,5.30
2023-03-26T19:25:54.828Z,5.30
2023-03-26T19:28:29.734Z,5.30
2023-03-26T19:31:06.734Z,5.40
2023-03-26T19:33:36.976Z,5.40
2023-03-26T19:36:13.449Z,5.30
2023-03-26T19:38:50.921Z,5.50
2023-03-26T19:41:34.392Z,5.50
2023-03-26T19:44:07.855Z,5.50
2023-03-26T19:46:53.712Z,5.50
2023-03-26T19:49:28.546Z,5.50
2023-03-26T19:52:19.921Z,5.50
2023-03-26T19:55:01.206Z,5.50
2023-03-26T19:57:32.831Z,5.50
2023-03-26T20:00:00.625Z,5.50
2023-03-26T20:02:28.209Z,5.50
2023-03-26T20:04:55.442Z,5.50
2023-03-26T20:07:34.954Z,5.50
2023-03-26T20:10:05.540Z,5.50
2023-03-26T20:12:33.277Z,5.60
2023-03-26T20:15:01.919Z,5.50
2023-03-26T20:17:30.772Z,5.50
2023-03-26T20:19:58.201Z,5.50
2023-03-26T20:22:26.732Z,5.50
2023-03-26T20:24:54.698Z,5.60
2023-03-26T20:27:22.311Z,5.60
2023-03-26T20:29:49.578Z,5.70
2023-03-26T20:32:23.594Z,5.70
2023-03-26T20:34:52.317Z,5.70
2023-03-26T20:37:20.564Z,5.70
2023-03-26T20:39:47.773Z,5.70
2023-03-26T20:42:16.016Z,5.70
2023-03-26T20:44:43.662Z,5.70
2023-03-26T20:47:11.557Z,5.70
2023-03-26T20:49:39.008Z,5.70
2023-03-26T20:52:06.388Z,5.60
2023-03-26T20:54:33.665Z,5.70
2023-03-26T20:57:02.285Z,5.70
2023-03-26T20:59:29.705Z,5.80
